createdAt,value
2017-01-25T00:00:12.946Z,963.40
2017-01-25T00:01:12.026Z,963.40
2017-01-25T00:02:14.670Z,963.43
2017-01-25T00:03:11.921Z,963.42
2017-01-25T00:04:13.419Z,963.39
2017-01-25T00:05:12.447Z,963.40
2017-01-25T00:06:13.035Z,963.40
2017-01-25T00:07:12.247Z,963.41
2017-01-25T00:08:11.404Z,963.44
2017-01-25T00:09:13.007Z,963.42
2017-01-25T00:10:12.549Z,963.40
2017-01-25T00:11:12.551Z,963.39
2017-01-25T00:12:13.196Z,963.34
2017-01-25T00:13:12.934Z,963.41
2017-01-25T00:14:12.857Z,963.31
2017-01-25T00:15:12.670Z,963.30
2017-01-25T00:16:12.799Z,963.33
2017-01-25T00:17:12.003Z,963.30
2017-01-25T00:18:14.874Z,963.28
2017-01-25T00:19:12.374Z,963.32
2017-01-25T00:20:12.988Z,963.37
2017-01-25T00:21:12.635Z,963.34
2017-01-25T00:22:13.121Z,963.36
2017-01-25T00:23:12.975Z,963.38
2017-01-25T00:24:12.150Z,963.40
2017-01-25T00:25:12.890Z,963.36
2017-01-25T00:26:13.500Z,963.45
2017-01-25T00:27:12.981Z,963.39
2017-01-25T00:28:12.209Z,963.40
2017-01-25T00:29:12.787Z,963.30
2017-01-25T00:30:12.453Z,963.31
2017-01-25T00:31:13.129Z,963.30
2017-01-25T00:32:12.687Z,963.35
2017-01-25T00:33:13.264Z,963.33
2017-01-25T00:34:12.393Z,963.38
2017-01-25T00:35:13.010Z,963.36
2017-01-25T00:36:09.708Z,963.35
2017-01-25T00:37:12.893Z,963.38
2017-01-25T00:38:12.826Z,963.39
2017-01-25T00:39:13.018Z,963.42
2017-01-25T00:40:12.173Z,963.41
2017-01-25T00:41:12.202Z,963.36
2017-01-25T00:42:12.687Z,963.40
2017-01-25T00:43:12.156Z,963.37
2017-01-25T00:44:13.345Z,963.37
2017-01-25T00:45:13.659Z,963.35
2017-01-25T00:46:13.260Z,963.39
2017-01-25T00:47:12.305Z,963.39
2017-01-25T00:48:12.828Z,963.38
2017-01-25T00:49:11.845Z,963.40
2017-01-25T00:50:11.764Z,963.44
2017-01-25T00:51:13.508Z,963.36
2017-01-25T00:52:11.162Z,963.35
2017-01-25T00:53:13.026Z,963.38
2017-01-25T00:54:12.043Z,963.39
2017-01-25T00:55:11.940Z,963.36
2017-01-25T00:56:12.059Z,963.32
2017-01-25T00:57:12.677Z,963.29
2017-01-25T00:58:12.896Z,963.32
2017-01-25T00:59:12.649Z,963.30
2017-01-25T01:00:14.474Z,963.33
2017-01-25T01:01:17.707Z,963.35
2017-01-25T01:02:13.490Z,963.36
2017-01-25T01:03:13.836Z,963.43
2017-01-25T01:04:12.102Z,963.41
2017-01-25T01:05:11.767Z,963.41
2017-01-25T01:06:12.181Z,963.37
2017-01-25T01:07:15.765Z,963.33
2017-01-25T01:08:12.621Z,963.34
2017-01-25T01:09:13.378Z,963.35
2017-01-25T01:10:15.966Z,963.34
2017-01-25T01:11:13.204Z,963.34
2017-01-25T01:12:13.727Z,963.34
2017-01-25T01:13:14.932Z,963.33
2017-01-25T01:14:12.595Z,963.33
2017-01-25T01:15:14.090Z,963.33
2017-01-25T01:16:15.219Z,963.34
2017-01-25T01:17:13.674Z,963.34
2017-01-25T01:18:13.248Z,963.36
2017-01-25T01:19:14.007Z,963.39
2017-01-25T01:20:14.392Z,963.39
2017-01-25T01:21:12.704Z,963.35
2017-01-25T01:22:14.828Z,963.32
2017-01-25T01:23:11.825Z,963.32
2017-01-25T01:24:12.833Z,963.35
2017-01-25T01:25:14.113Z,963.37
2017-01-25T01:26:12.712Z,963.35
2017-01-25T01:27:12.734Z,963.40
2017-01-25T01:28:14.425Z,963.35
2017-01-25T01:29:13.184Z,963.36
2017-01-25T01:30:12.749Z,963.39
2017-01-25T01:31:12.665Z,963.28
2017-01-25T01:32:15.476Z,963.29
2017-01-25T01:33:15.452Z,963.30
2017-01-25T01:34:12.474Z,963.31
2017-01-25T01:35:13.016Z,963.37
2017-01-25T01:36:10.992Z,963.41
2017-01-25T01:37:14.385Z,963.45
2017-01-25T01:38:12.832Z,963.45
2017-01-25T01:39:12.677Z,963.49
2017-01-25T01:40:12.636Z,963.46
2017-01-25T01:41:13.778Z,963.48
2017-01-25T01:42:11.843Z,963.38
2017-01-25T01:43:11.960Z,963.37
2017-01-25T01:44:12.310Z,963.39
2017-01-25T01:45:12.582Z,963.40
2017-01-25T01:46:14.671Z,963.41
2017-01-25T01:47:12.632Z,963.38
2017-01-25T01:48:16.221Z,963.36
2017-01-25T01:49:12.327Z,963.42
2017-01-25T01:50:14.681Z,963.38
2017-01-25T01:51:13.579Z,963.37
2017-01-25T01:52:13.179Z,963.37
2017-01-25T01:53:12.298Z,963.34
2017-01-25T01:54:15.226Z,963.36
2017-01-25T01:55:13.023Z,963.32
2017-01-25T01:56:13.651Z,963.37
2017-01-25T01:57:13.208Z,963.42
2017-01-25T01:58:12.346Z,963.41
2017-01-25T01:59:13.239Z,963.40
2017-01-25T02:00:12.318Z,963.43
2017-01-25T02:01:13.005Z,963.39
2017-01-25T02:02:14.544Z,963.39
2017-01-25T02:03:13.189Z,963.42
2017-01-25T02:04:12.791Z,963.41
2017-01-25T02:05:12.659Z,963.37
2017-01-25T02:06:13.516Z,963.35
2017-01-25T02:07:13.190Z,963.36
2017-01-25T02:08:12.838Z,963.42
2017-01-25T02:09:12.660Z,963.42
2017-01-25T02:10:14.359Z,963.40
2017-01-25T02:11:13.471Z,963.43
2017-01-25T02:12:13.157Z,963.39
2017-01-25T02:13:13.691Z,963.30
2017-01-25T02:14:12.727Z,963.36
2017-01-25T02:15:13.856Z,963.32
2017-01-25T02:16:11.930Z,963.31
2017-01-25T02:17:14.424Z,963.36
2017-01-25T02:18:12.225Z,963.39
2017-01-25T02:19:13.125Z,963.39
2017-01-25T02:20:13.758Z,963.41
2017-01-25T02:21:12.771Z,963.41
2017-01-25T02:22:12.576Z,963.45
2017-01-25T02:23:12.676Z,963.43
2017-01-25T02:24:12.759Z,963.42
2017-01-25T02:25:12.659Z,963.49
2017-01-25T02:26:12.895Z,963.47
2017-01-25T02:27:12.739Z,963.47
2017-01-25T02:28:15.168Z,963.46
2017-01-25T02:29:12.783Z,963.51
2017-01-25T02:30:25.575Z,963.52
2017-01-25T02:31:13.180Z,963.51
2017-01-25T02:32:13.358Z,963.52
2017-01-25T02:33:13.027Z,963.50
2017-01-25T02:34:13.754Z,963.47
2017-01-25T02:35:11.578Z,963.47
2017-01-25T02:36:13.401Z,963.48
2017-01-25T02:37:13.185Z,963.47
2017-01-25T02:38:10.379Z,963.49
2017-01-25T02:39:12.483Z,963.50
2017-01-25T02:40:12.500Z,963.42
2017-01-25T02:41:11.048Z,963.43
2017-01-25T02:42:12.311Z,963.41
2017-01-25T02:43:13.002Z,963.45
2017-01-25T02:44:13.924Z,963.50
2017-01-25T02:45:13.448Z,963.48
2017-01-25T02:46:13.384Z,963.52
2017-01-25T02:47:13.005Z,963.45
2017-01-25T02:48:13.035Z,963.39
2017-01-25T02:49:12.657Z,963.40
2017-01-25T02:50:13.909Z,963.39
2017-01-25T02:51:12.255Z,963.41
2017-01-25T02:52:13.613Z,963.40
2017-01-25T02:53:13.740Z,963.40
2017-01-25T02:54:14.137Z,963.41
2017-01-25T02:55:11.354Z,963.42
2017-01-25T02:56:12.019Z,963.36
2017-01-25T02:57:12.604Z,963.36
2017-01-25T02:58:13.141Z,963.35
2017-01-25T02:59:13.245Z,963.36
2017-01-25T03:00:13.340Z,963.33
2017-01-25T03:01:12.271Z,963.28
2017-01-25T03:02:12.691Z,963.32
2017-01-25T03:03:13.297Z,963.33
2017-01-25T03:04:13.094Z,963.32
2017-01-25T03:05:12.949Z,963.32
2017-01-25T03:06:12.122Z,963.30
2017-01-25T03:07:10.496Z,963.34
2017-01-25T03:08:13.634Z,963.27
2017-01-25T03:09:12.639Z,963.30
2017-01-25T03:10:13.408Z,963.36
2017-01-25T03:11:13.853Z,963.35
2017-01-25T03:12:11.884Z,963.38
2017-01-25T03:13:12.664Z,963.43
2017-01-25T03:14:13.420Z,963.34
2017-01-25T03:15:14.042Z,963.34
2017-01-25T03:16:13.818Z,963.33
2017-01-25T03:17:13.598Z,963.34
2017-01-25T03:18:13.319Z,963.33
2017-01-25T03:19:12.480Z,963.34
2017-01-25T03:20:12.655Z,963.33
2017-01-25T03:21:12.860Z,963.32
2017-01-25T03:22:11.935Z,963.33
2017-01-25T03:23:10.144Z,963.32
2017-01-25T03:24:12.818Z,963.31
2017-01-25T03:25:11.884Z,963.27
2017-01-25T03:26:12.220Z,963.26
2017-01-25T03:27:13.401Z,963.30
2017-01-25T03:28:13.160Z,963.31
2017-01-25T03:29:12.264Z,963.28
2017-01-25T03:30:13.090Z,963.28
2017-01-25T03:31:14.684Z,963.31
2017-01-25T03:32:13.325Z,963.33
2017-01-25T03:33:13.873Z,963.35
2017-01-25T03:34:12.444Z,963.33
2017-01-25T03:35:12.458Z,963.30
2017-01-25T03:36:14.120Z,963.33
2017-01-25T03:37:13.093Z,963.27
2017-01-25T03:38:13.175Z,963.30
2017-01-25T03:39:12.804Z,963.35
2017-01-25T03:40:11.938Z,963.30
2017-01-25T03:41:13.577Z,963.33
2017-01-25T03:42:14.319Z,963.35
2017-01-25T03:43:12.457Z,963.36
2017-01-25T03:44:14.377Z,963.31
2017-01-25T03:45:14.088Z,963.33
2017-01-25T03:46:12.169Z,963.36
2017-01-25T03:47:13.388Z,963.36
2017-01-25T03:48:13.087Z,963.38
2017-01-25T03:49:13.431Z,963.33
2017-01-25T03:50:13.587Z,963.36
2017-01-25T03:51:12.581Z,963.32
2017-01-25T03:52:13.204Z,963.33
2017-01-25T03:53:12.289Z,963.31
2017-01-25T03:54:13.503Z,963.36
2017-01-25T03:55:12.448Z,963.34
2017-01-25T03:56:12.831Z,963.37
2017-01-25T03:57:12.536Z,963.37
2017-01-25T03:58:12.508Z,963.41
2017-01-25T03:59:12.629Z,963.40
2017-01-25T04:00:13.419Z,963.45
2017-01-25T04:01:12.358Z,963.44
2017-01-25T04:02:13.178Z,963.41
2017-01-25T04:03:12.759Z,963.41
2017-01-25T04:04:12.407Z,963.36
2017-01-25T04:05:12.636Z,963.38
2017-01-25T04:06:13.658Z,963.34
2017-01-25T04:07:13.191Z,963.36
2017-01-25T04:08:12.744Z,963.37
2017-01-25T04:09:13.401Z,963.36
2017-01-25T04:10:14.103Z,963.34
2017-01-25T04:11:11.374Z,963.42
2017-01-25T04:12:12.121Z,963.41
2017-01-25T04:13:12.184Z,963.43
2017-01-25T04:14:12.959Z,963.43
2017-01-25T04:15:12.127Z,963.38
2017-01-25T04:16:12.770Z,963.43
2017-01-25T04:17:11.908Z,963.40
2017-01-25T04:18:13.056Z,963.42
2017-01-25T04:19:12.882Z,963.44
2017-01-25T04:20:12.555Z,963.47
2017-01-25T04:21:13.178Z,963.40
2017-01-25T04:22:12.110Z,963.43
2017-01-25T04:23:12.660Z,963.47
2017-01-25T04:24:12.637Z,963.42
2017-01-25T04:25:12.658Z,963.40
2017-01-25T04:26:12.655Z,963.39
2017-01-25T04:27:12.890Z,963.35
2017-01-25T04:28:11.897Z,963.37
2017-01-25T04:29:12.478Z,963.34
2017-01-25T04:30:12.110Z,963.38
2017-01-25T04:31:13.633Z,963.34
2017-01-25T04:32:12.779Z,963.28
2017-01-25T04:33:11.045Z,963.31
2017-01-25T04:34:12.438Z,963.31
2017-01-25T04:35:13.075Z,963.35
2017-01-25T04:36:13.629Z,963.37
2017-01-25T04:37:13.341Z,963.41
2017-01-25T04:38:11.397Z,963.45
2017-01-25T04:39:13.261Z,963.43
2017-01-25T04:40:13.976Z,963.40
2017-01-25T04:41:12.735Z,963.36
2017-01-25T04:42:12.758Z,963.34
2017-01-25T04:43:12.314Z,963.38
2017-01-25T04:44:13.364Z,963.35
2017-01-25T04:45:13.039Z,963.35
2017-01-25T04:46:12.963Z,963.35
2017-01-25T04:47:13.035Z,963.33
2017-01-25T04:48:12.746Z,963.34
2017-01-25T04:49:11.940Z,963.38
2017-01-25T04:50:13.048Z,963.45
2017-01-25T04:51:12.106Z,963.44
2017-01-25T04:52:13.763Z,963.46
2017-01-25T04:53:13.599Z,963.44
2017-01-25T04:54:14.008Z,963.47
2017-01-25T04:55:12.783Z,963.49
2017-01-25T04:56:12.985Z,963.40
2017-01-25T04:57:13.630Z,963.36
2017-01-25T04:58:12.733Z,963.36
2017-01-25T04:59:10.352Z,963.35
2017-01-25T05:00:14.654Z,963.32
2017-01-25T05:01:11.289Z,963.35
2017-01-25T05:02:14.022Z,963.35
2017-01-25T05:03:12.147Z,963.33
2017-01-25T05:04:13.946Z,963.28
2017-01-25T05:05:13.066Z,963.27
2017-01-25T05:06:12.116Z,963.28
2017-01-25T05:07:12.775Z,963.25
2017-01-25T05:08:12.642Z,963.27
2017-01-25T05:09:14.369Z,963.26
2017-01-25T05:10:12.257Z,963.28
2017-01-25T05:11:11.068Z,963.26
2017-01-25T05:12:10.810Z,963.23
2017-01-25T05:13:12.141Z,963.28
2017-01-25T05:14:12.709Z,963.26
2017-01-25T05:15:13.772Z,963.28
2017-01-25T05:16:13.409Z,963.26
2017-01-25T05:17:13.263Z,963.21
2017-01-25T05:18:13.242Z,963.26
2017-01-25T05:19:12.940Z,963.21
2017-01-25T05:20:14.504Z,963.23
2017-01-25T05:21:12.390Z,963.21
2017-01-25T05:22:12.543Z,963.22
2017-01-25T05:23:12.548Z,963.16
2017-01-25T05:24:14.095Z,963.21
2017-01-25T05:25:14.044Z,963.24
2017-01-25T05:26:14.105Z,963.24
2017-01-25T05:27:12.128Z,963.23
2017-01-25T05:28:13.269Z,963.24
2017-01-25T05:29:12.848Z,963.27
2017-01-25T05:30:13.817Z,963.30
2017-01-25T05:31:12.778Z,963.23
2017-01-25T05:32:12.517Z,963.24
2017-01-25T05:33:12.601Z,963.25
2017-01-25T05:34:13.109Z,963.29
2017-01-25T05:35:12.660Z,963.27
2017-01-25T05:36:12.668Z,963.33
2017-01-25T05:37:13.000Z,963.34
2017-01-25T05:38:11.957Z,963.33
2017-01-25T05:39:12.145Z,963.29
2017-01-25T05:40:14.114Z,963.25
2017-01-25T05:41:12.604Z,963.24
2017-01-25T05:42:13.423Z,963.22
2017-01-25T05:43:12.374Z,963.16
2017-01-25T05:44:13.317Z,963.17
2017-01-25T05:45:13.052Z,963.12
2017-01-25T05:46:12.702Z,963.13
2017-01-25T05:47:13.263Z,963.14
2017-01-25T05:48:12.949Z,963.14
2017-01-25T05:49:12.497Z,963.15
2017-01-25T05:50:12.376Z,963.14
2017-01-25T05:51:12.312Z,963.10
2017-01-25T05:52:12.455Z,963.13
2017-01-25T05:53:13.868Z,963.08
2017-01-25T05:54:12.446Z,963.10
2017-01-25T05:55:14.357Z,963.09
2017-01-25T05:56:13.083Z,963.12
2017-01-25T05:57:12.809Z,963.12
2017-01-25T05:58:13.597Z,963.17
2017-01-25T05:59:13.318Z,963.15
2017-01-25T06:00:12.969Z,963.20
2017-01-25T06:01:12.177Z,963.19
2017-01-25T06:02:10.928Z,963.24
2017-01-25T06:03:12.801Z,963.22
2017-01-25T06:04:13.529Z,963.18
2017-01-25T06:05:09.754Z,963.20
2017-01-25T06:06:13.461Z,963.16
2017-01-25T06:07:13.953Z,963.17
2017-01-25T06:08:12.968Z,963.16
2017-01-25T06:09:12.810Z,963.18
2017-01-25T06:10:11.869Z,963.23
2017-01-25T06:11:11.008Z,963.20
2017-01-25T06:12:12.678Z,963.20
2017-01-25T06:13:12.814Z,963.22
2017-01-25T06:14:12.876Z,963.22
2017-01-25T06:15:12.400Z,963.22
2017-01-25T06:16:12.403Z,963.22
2017-01-25T06:17:13.078Z,963.22
2017-01-25T06:18:11.969Z,963.19
2017-01-25T06:19:12.096Z,963.19
2017-01-25T06:20:12.207Z,963.19
2017-01-25T06:21:12.303Z,963.22
2017-01-25T06:22:13.814Z,963.19
2017-01-25T06:23:12.574Z,963.26
2017-01-25T06:24:12.571Z,963.26
2017-01-25T06:25:13.620Z,963.26
2017-01-25T06:26:13.452Z,963.29
2017-01-25T06:27:12.939Z,963.23
2017-01-25T06:28:12.245Z,963.29
2017-01-25T06:29:11.022Z,963.26
2017-01-25T06:30:12.875Z,963.30
2017-01-25T06:31:12.665Z,963.28
2017-01-25T06:32:12.668Z,963.34
2017-01-25T06:33:13.809Z,963.33
2017-01-25T06:34:11.988Z,963.28
2017-01-25T06:35:13.688Z,963.26
2017-01-25T06:36:13.538Z,963.33
2017-01-25T06:37:13.345Z,963.34
2017-01-25T06:38:13.949Z,963.36
2017-01-25T06:39:12.684Z,963.33
2017-01-25T06:40:13.865Z,963.35
2017-01-25T06:41:12.354Z,963.34
2017-01-25T06:42:13.180Z,963.38
2017-01-25T06:43:12.885Z,963.37
2017-01-25T06:44:13.063Z,963.36
2017-01-25T06:45:16.161Z,963.42
2017-01-25T06:46:13.176Z,963.36
2017-01-25T06:47:12.930Z,963.43
2017-01-25T06:48:10.866Z,963.42
2017-01-25T06:49:13.465Z,963.38
2017-01-25T06:50:13.311Z,963.38
2017-01-25T06:51:12.399Z,963.33
2017-01-25T06:52:13.358Z,963.34
2017-01-25T06:53:13.069Z,963.34
2017-01-25T06:54:12.186Z,963.37
2017-01-25T06:55:12.239Z,963.39
2017-01-25T06:56:13.925Z,963.42
2017-01-25T06:57:12.603Z,963.36
2017-01-25T06:58:12.658Z,963.44
2017-01-25T06:59:13.392Z,963.43
2017-01-25T07:00:12.470Z,963.46
2017-01-25T07:01:12.948Z,963.49
2017-01-25T07:02:12.157Z,963.48
2017-01-25T07:03:12.664Z,963.49
2017-01-25T07:04:14.769Z,963.49
2017-01-25T07:05:11.870Z,963.48
2017-01-25T07:06:11.934Z,963.46
2017-01-25T07:07:12.716Z,963.43
2017-01-25T07:08:10.837Z,963.42
2017-01-25T07:09:12.543Z,963.44
2017-01-25T07:10:12.505Z,963.37
2017-01-25T07:11:12.496Z,963.37
2017-01-25T07:12:12.579Z,963.45
2017-01-25T07:13:12.640Z,963.40
2017-01-25T07:14:13.584Z,963.44
2017-01-25T07:15:14.418Z,963.43
2017-01-25T07:16:12.522Z,963.35
2017-01-25T07:17:13.898Z,963.37
2017-01-25T07:18:13.621Z,963.46
2017-01-25T07:19:12.706Z,963.43
2017-01-25T07:20:15.054Z,963.37
2017-01-25T07:21:12.461Z,963.40
2017-01-25T07:22:13.150Z,963.39
2017-01-25T07:23:12.765Z,963.44
2017-01-25T07:24:13.678Z,963.45
2017-01-25T07:25:13.531Z,963.40
2017-01-25T07:26:13.112Z,963.40
2017-01-25T07:27:10.940Z,963.42
2017-01-25T07:28:12.118Z,963.42
2017-01-25T07:29:13.340Z,963.41
2017-01-25T07:30:14.081Z,963.39
2017-01-25T07:31:12.059Z,963.38
2017-01-25T07:32:13.517Z,963.39
2017-01-25T07:33:12.329Z,963.36
2017-01-25T07:34:15.047Z,963.43
2017-01-25T07:35:12.256Z,963.45
2017-01-25T07:36:12.459Z,963.39
2017-01-25T07:37:12.595Z,963.46
2017-01-25T07:38:12.636Z,963.48
2017-01-25T07:39:12.713Z,963.51
2017-01-25T07:40:12.845Z,963.57
2017-01-25T07:41:12.529Z,963.65
2017-01-25T07:42:11.508Z,963.60
2017-01-25T07:43:12.425Z,963.77
2017-01-25T07:44:12.516Z,963.59
2017-01-25T07:45:13.391Z,963.55
2017-01-25T07:46:12.509Z,963.57
2017-01-25T07:47:14.076Z,963.52
2017-01-25T07:48:12.108Z,963.55
2017-01-25T07:49:12.184Z,963.51
2017-01-25T07:50:12.706Z,963.51
2017-01-25T07:51:13.406Z,963.52
2017-01-25T07:52:13.049Z,963.47
2017-01-25T07:53:13.517Z,963.49
2017-01-25T07:54:12.880Z,963.48
2017-01-25T07:55:13.139Z,963.46
2017-01-25T07:56:12.697Z,963.44
2017-01-25T07:57:15.303Z,963.46
2017-01-25T07:58:12.888Z,963.44
2017-01-25T07:59:12.555Z,963.47
2017-01-25T08:00:11.244Z,963.46
2017-01-25T08:01:13.146Z,963.44
2017-01-25T08:02:12.759Z,963.45
2017-01-25T08:03:12.440Z,963.46
2017-01-25T08:04:12.567Z,963.45
2017-01-25T08:05:12.707Z,963.45
2017-01-25T08:06:12.680Z,963.54
2017-01-25T08:07:13.476Z,963.49
2017-01-25T08:08:13.251Z,963.48
2017-01-25T08:09:11.078Z,963.54
2017-01-25T08:10:10.852Z,963.52
2017-01-25T08:11:12.812Z,963.51
2017-01-25T08:12:12.478Z,963.49
2017-01-25T08:13:13.894Z,963.53
2017-01-25T08:14:12.394Z,963.49
2017-01-25T08:15:12.513Z,963.50
2017-01-25T08:16:13.209Z,963.52
2017-01-25T08:17:12.870Z,963.55
2017-01-25T08:18:12.669Z,963.50
2017-01-25T08:19:13.290Z,963.45
2017-01-25T08:20:12.275Z,963.46
2017-01-25T08:21:12.861Z,963.51
2017-01-25T08:22:12.420Z,963.51
2017-01-25T08:23:12.977Z,963.48
2017-01-25T08:24:11.996Z,963.57
2017-01-25T08:25:12.482Z,963.58
2017-01-25T08:26:11.348Z,963.56
2017-01-25T08:27:12.893Z,963.56
2017-01-25T08:28:12.588Z,963.58
2017-01-25T08:29:13.108Z,963.62
2017-01-25T08:30:12.121Z,963.63
2017-01-25T08:31:11.138Z,963.58
2017-01-25T08:32:12.669Z,963.61
2017-01-25T08:33:12.813Z,963.63
2017-01-25T08:34:11.839Z,963.68
2017-01-25T08:35:11.705Z,963.63
2017-01-25T08:36:12.811Z,963.66
2017-01-25T08:37:11.809Z,963.69
2017-01-25T08:38:12.431Z,963.73
2017-01-25T08:39:13.120Z,963.74
2017-01-25T08:40:12.798Z,963.76
2017-01-25T08:41:11.865Z,963.76
2017-01-25T08:42:12.462Z,963.74
2017-01-25T08:43:12.368Z,963.83
2017-01-25T08:44:12.889Z,963.79
2017-01-25T08:45:12.658Z,963.80
2017-01-25T08:46:12.699Z,963.80
2017-01-25T08:47:13.275Z,963.77
2017-01-25T08:48:12.297Z,963.77
2017-01-25T08:49:12.777Z,963.80
2017-01-25T08:50:12.429Z,963.80
2017-01-25T08:51:12.595Z,963.79
2017-01-25T08:52:11.665Z,963.72
2017-01-25T08:53:16.045Z,963.82
2017-01-25T08:54:12.193Z,963.80
2017-01-25T08:55:13.466Z,963.73
2017-01-25T08:56:12.521Z,963.78
2017-01-25T08:57:13.262Z,963.78
2017-01-25T08:58:12.295Z,963.82
2017-01-25T08:59:12.930Z,963.82
2017-01-25T09:00:12.493Z,963.78
2017-01-25T09:01:13.023Z,963.80
2017-01-25T09:02:12.211Z,963.81
2017-01-25T09:03:13.185Z,963.84
2017-01-25T09:04:12.967Z,963.86
2017-01-25T09:05:13.870Z,963.86
2017-01-25T09:06:12.589Z,963.83
2017-01-25T09:07:13.755Z,963.85
2017-01-25T09:08:12.854Z,963.80
2017-01-25T09:09:10.782Z,963.80
2017-01-25T09:10:12.372Z,963.80
2017-01-25T09:11:12.463Z,963.81
2017-01-25T09:12:12.809Z,963.83
2017-01-25T09:13:12.016Z,963.81
2017-01-25T09:14:13.609Z,963.79
2017-01-25T09:15:14.646Z,963.79
2017-01-25T09:16:12.632Z,963.86
2017-01-25T09:17:12.851Z,963.89
2017-01-25T09:18:11.855Z,963.91
2017-01-25T09:19:12.045Z,963.88
2017-01-25T09:20:12.562Z,963.87
2017-01-25T09:21:12.795Z,963.87
2017-01-25T09:22:12.577Z,963.86
2017-01-25T09:23:11.462Z,963.88
2017-01-25T09:24:13.351Z,963.85
2017-01-25T09:25:12.853Z,963.82
2017-01-25T09:26:13.417Z,963.85
2017-01-25T09:27:13.118Z,963.83
2017-01-25T09:28:11.031Z,963.77
2017-01-25T09:29:12.990Z,963.86
2017-01-25T09:30:13.785Z,963.85
2017-01-25T09:31:12.358Z,963.78
2017-01-25T09:32:12.348Z,963.79
2017-01-25T09:33:12.320Z,963.76
2017-01-25T09:34:12.317Z,963.81
2017-01-25T09:35:13.074Z,963.80
2017-01-25T09:36:13.933Z,963.82
2017-01-25T09:37:13.026Z,963.82
2017-01-25T09:38:12.642Z,963.77
2017-01-25T09:39:14.658Z,963.81
2017-01-25T09:40:13.525Z,963.76
2017-01-25T09:41:13.450Z,963.76
2017-01-25T09:42:12.878Z,963.80
2017-01-25T09:43:13.578Z,963.73
2017-01-25T09:44:13.050Z,963.77
2017-01-25T09:45:12.027Z,963.75
2017-01-25T09:46:12.101Z,963.75
2017-01-25T09:47:13.549Z,963.72
2017-01-25T09:48:13.066Z,963.74
2017-01-25T09:49:12.872Z,963.75
2017-01-25T09:50:13.057Z,963.73
2017-01-25T09:51:12.163Z,963.83
2017-01-25T09:52:12.652Z,963.84
2017-01-25T09:53:11.310Z,963.84
2017-01-25T09:54:13.562Z,963.81
2017-01-25T09:55:15.267Z,963.81
2017-01-25T09:56:13.805Z,963.83
2017-01-25T09:57:12.366Z,963.86
2017-01-25T09:58:13.650Z,963.81
2017-01-25T09:59:12.954Z,963.85
2017-01-25T10:00:12.113Z,963.82
2017-01-25T10:01:12.915Z,963.86
2017-01-25T10:02:12.022Z,963.82
2017-01-25T10:03:12.203Z,963.84
2017-01-25T10:04:12.806Z,963.89
2017-01-25T10:05:12.395Z,963.83
2017-01-25T10:06:12.361Z,963.82
2017-01-25T10:07:12.676Z,963.81
2017-01-25T10:08:15.566Z,963.83
2017-01-25T10:09:10.767Z,963.81
2017-01-25T10:10:12.815Z,963.81
2017-01-25T10:11:11.950Z,963.87
2017-01-25T10:12:12.169Z,963.85
2017-01-25T10:13:12.263Z,963.86
2017-01-25T10:14:13.116Z,963.81
2017-01-25T10:15:12.136Z,963.89
2017-01-25T10:16:12.169Z,963.88
2017-01-25T10:17:12.272Z,963.90
2017-01-25T10:18:12.688Z,963.84
2017-01-25T10:19:12.721Z,963.84
2017-01-25T10:20:13.708Z,963.85
2017-01-25T10:21:12.683Z,963.80
2017-01-25T10:22:13.555Z,963.81
2017-01-25T10:23:12.571Z,963.85
2017-01-25T10:24:12.557Z,963.86
2017-01-25T10:25:13.075Z,963.86
2017-01-25T10:26:12.132Z,963.88
2017-01-25T10:27:13.932Z,963.86
2017-01-25T10:28:11.978Z,963.84
2017-01-25T10:29:12.056Z,963.81
2017-01-25T10:30:13.738Z,963.79
2017-01-25T10:31:13.617Z,963.76
2017-01-25T10:32:12.716Z,963.75
2017-01-25T10:33:13.810Z,963.75
2017-01-25T10:34:13.269Z,963.75
2017-01-25T10:35:12.924Z,963.73
2017-01-25T10:36:12.626Z,963.76
2017-01-25T10:37:13.287Z,963.71
2017-01-25T10:38:12.355Z,963.65
2017-01-25T10:39:12.240Z,963.66
2017-01-25T10:40:12.837Z,963.66
2017-01-25T10:41:11.894Z,963.67
2017-01-25T10:42:12.467Z,963.62
2017-01-25T10:43:12.918Z,963.61
2017-01-25T10:44:10.735Z,963.58
2017-01-25T10:45:12.100Z,963.60
2017-01-25T10:46:10.950Z,963.58
2017-01-25T10:47:12.391Z,963.60
2017-01-25T10:48:13.029Z,963.59
2017-01-25T10:49:12.507Z,963.56
2017-01-25T10:50:14.041Z,963.55
2017-01-25T10:51:12.066Z,963.56
2017-01-25T10:52:14.795Z,963.58
2017-01-25T10:53:13.275Z,963.51
2017-01-25T10:54:13.068Z,963.48
2017-01-25T10:55:13.467Z,963.43
2017-01-25T10:56:13.355Z,963.46
2017-01-25T10:57:12.867Z,963.41
2017-01-25T10:58:11.906Z,963.47
2017-01-25T10:59:12.556Z,963.40
2017-01-25T11:00:14.146Z,963.38
2017-01-25T11:01:12.745Z,963.34
2017-01-25T11:02:14.570Z,963.34
2017-01-25T11:03:12.840Z,963.37
2017-01-25T11:04:11.875Z,963.33
2017-01-25T11:05:12.045Z,963.32
2017-01-25T11:06:12.477Z,963.35
2017-01-25T11:07:13.508Z,963.33
2017-01-25T11:08:13.240Z,963.29
2017-01-25T11:09:12.215Z,963.26
2017-01-25T11:10:12.719Z,963.33
2017-01-25T11:11:12.607Z,963.29
2017-01-25T11:12:13.131Z,963.27
2017-01-25T11:13:12.713Z,963.28
2017-01-25T11:14:13.213Z,963.24
2017-01-25T11:15:13.376Z,963.23
2017-01-25T11:16:12.410Z,963.21
2017-01-25T11:17:12.722Z,963.22
2017-01-25T11:18:14.419Z,963.15
2017-01-25T11:19:11.204Z,963.13
2017-01-25T11:20:13.056Z,963.16
2017-01-25T11:21:12.666Z,963.16
2017-01-25T11:22:13.096Z,963.09
2017-01-25T11:23:12.224Z,963.12
2017-01-25T11:24:13.188Z,963.10
2017-01-25T11:25:12.756Z,963.09
2017-01-25T11:26:14.401Z,963.07
2017-01-25T11:27:12.965Z,963.04
2017-01-25T11:28:12.036Z,963.02
2017-01-25T11:29:13.735Z,962.96
2017-01-25T11:30:13.427Z,962.96
2017-01-25T11:31:13.366Z,962.92
2017-01-25T11:32:12.331Z,962.97
2017-01-25T11:33:10.503Z,962.91
2017-01-25T11:34:12.491Z,962.88
2017-01-25T11:35:13.186Z,962.90
2017-01-25T11:36:12.271Z,962.91
2017-01-25T11:37:12.530Z,962.88
2017-01-25T11:38:12.598Z,962.88
2017-01-25T11:39:14.586Z,962.87
2017-01-25T11:40:10.994Z,962.90
2017-01-25T11:41:13.521Z,962.84
2017-01-25T11:42:13.326Z,962.91
2017-01-25T11:43:12.377Z,962.84
2017-01-25T11:44:12.924Z,962.87
2017-01-25T11:45:13.448Z,962.85
2017-01-25T11:46:13.176Z,962.85
2017-01-25T11:47:13.155Z,962.81
2017-01-25T11:48:12.117Z,962.83
2017-01-25T11:49:12.737Z,962.81
2017-01-25T11:50:13.556Z,962.82
2017-01-25T11:51:13.246Z,962.84
2017-01-25T11:52:12.837Z,962.87
2017-01-25T11:53:16.007Z,962.82
2017-01-25T11:54:12.860Z,962.83
2017-01-25T11:55:12.408Z,962.81
2017-01-25T11:56:13.035Z,962.79
2017-01-25T11:57:12.256Z,962.79
2017-01-25T11:58:13.656Z,962.84
2017-01-25T11:59:13.325Z,962.85
2017-01-25T12:00:14.298Z,962.78
2017-01-25T12:01:15.401Z,962.83
2017-01-25T12:02:12.587Z,962.77
2017-01-25T12:03:13.324Z,962.75
2017-01-25T12:04:12.381Z,962.74
2017-01-25T12:05:12.844Z,962.69
2017-01-25T12:06:10.778Z,962.75
2017-01-25T12:07:12.238Z,962.74
2017-01-25T12:08:12.484Z,962.65
2017-01-25T12:09:13.121Z,962.66
2017-01-25T12:10:12.250Z,962.71
2017-01-25T12:11:12.282Z,962.66
2017-01-25T12:12:12.447Z,962.72
2017-01-25T12:13:12.554Z,962.64
2017-01-25T12:14:12.662Z,962.61
2017-01-25T12:15:13.206Z,962.62
2017-01-25T12:16:12.267Z,962.57
2017-01-25T12:17:12.885Z,962.61
2017-01-25T12:18:12.551Z,962.57
2017-01-25T12:19:13.225Z,962.57
2017-01-25T12:20:12.764Z,962.57
2017-01-25T12:21:11.835Z,962.54
2017-01-25T12:22:12.465Z,962.51
2017-01-25T12:23:13.420Z,962.46
2017-01-25T12:24:12.573Z,962.56
2017-01-25T12:25:13.795Z,962.45
2017-01-25T12:26:13.397Z,962.49
2017-01-25T12:27:10.571Z,962.50
2017-01-25T12:28:13.224Z,962.43